sensor_id;sensor_type;location;lat;lon;timestamp;P1;P2;P0
64138;PMS5003;50435;43.700;-79.318;2024-01-16T00:02:16;7;7;
64138;PMS5003;50435;43.700;-79.318;2024-01-16T00:04:43;7;7;
64138;PMS5003;50435;43.700;-79.318;2024-01-16T00:07:11;7;7;
64138;PMS5003;50435;43.700;-79.318;2024-01-16T00:09:39;7;7;
64138;PMS5003;50435;43.700;-79.318;2024-01-16T00:12:07;7;7;
64138;PMS5003;50435;43.700;-79.318;2024-01-16T00:14:35;8;8;
64138;PMS5003;50435;43.700;-79.318;2024-01-16T00:17:04;8;8;
64138;PMS5003;50435;43.700;-79.318;2024-01-16T00:19:32;7;7;
64138;PMS5003;50435;43.700;-79.318;2024-01-16T00:22:00;7;7;
64138;PMS5003;50435;43.700;-79.318;2024-01-16T00:24:27;5;5;
64138;PMS5003;50435;43.700;-79.318;2024-01-16T00:26:55;9;9;
64138;PMS5003;50435;43.700;-79.318;2024-01-16T00:29:23;8;8;
64138;PMS5003;50435;43.700;-79.318;2024-01-16T00:31:50;8;7;
64138;PMS5003;50435;43.700;-79.318;2024-01-16T00:34:18;9;9;
64138;PMS5003;50435;43.700;-79.318;2024-01-16T00:36:45;9;8;
64138;PMS5003;50435;43.700;-79.318;2024-01-16T00:39:13;8;7;
64138;PMS5003;50435;43.700;-79.318;2024-01-16T00:41:40;7;7;
64138;PMS5003;50435;43.700;-79.318;2024-01-16T00:44:08;11;11;
64138;PMS5003;50435;43.700;-79.318;2024-01-16T00:46:37;12;11;
64138;PMS5003;50435;43.700;-79.318;2024-01-16T00:49:04;7;7;
64138;PMS5003;50435;43.700;-79.318;2024-01-16T00:51:32;11;11;
64138;PMS5003;50435;43.700;-79.318;2024-01-16T00:54:00;9;9;
64138;PMS5003;50435;43.700;-79.318;2024-01-16T00:56:28;8;8;
64138;PMS5003;50435;43.700;-79.318;2024-01-16T00:58:55;9;9;
64138;PMS5003;50435;43.700;-79.318;2024-01-16T01:01:23;9;8;
64138;PMS5003;50435;43.700;-79.318;2024-01-16T01:03:51;9;9;
64138;PMS5003;50435;43.700;-79.318;2024-01-16T01:06:18;11;11;
64138;PMS5003;50435;43.700;-79.318;2024-01-16T01:08:46;9;9;
64138;PMS5003;50435;43.700;-79.318;2024-01-16T01:11:14;11;11;
64138;PMS5003;50435;43.700;-79.318;2024-01-16T01:13:41;9;9;
64138;PMS5003;50435;43.700;-79.318;2024-01-16T01:16:09;12;12;
64138;PMS5003;50435;43.700;-79.318;2024-01-16T01:18:36;11;11;
64138;PMS5003;50435;43.700;-79.318;2024-01-16T01:21:04;9;9;
64138;PMS5003;50435;43.700;-79.318;2024-01-16T01:23:32;12;11;
64138;PMS5003;50435;43.700;-79.318;2024-01-16T01:26:00;14;12;
64138;PMS5003;50435;43.700;-79.318;2024-01-16T01:28:27;12;9;
64138;PMS5003;50435;43.700;-79.318;2024-01-16T01:30:55;12;9;
64138;PMS5003;50435;43.700;-79.318;2024-01-16T01:33:22;9;8;
64138;PMS5003;50435;43.700;-79.318;2024-01-16T01:35:50;11;11;
64138;PMS5003;50435;43.700;-79.318;2024-01-16T01:38:18;11;9;
64138;PMS5003;50435;43.700;-79.318;2024-01-16T01:40:45;9;8;
64138;PMS5003;50435;43.700;-79.318;2024-01-16T01:43:16;12;12;
64138;PMS5003;50435;43.700;-79.318;2024-01-16T01:45:44;12;12;
64138;PMS5003;50435;43.700;-79.318;2024-01-16T01:48:13;14;12;
64138;PMS5003;50435;43.700;-79.318;2024-01-16T01:50:41;7;7;
64138;PMS5003;50435;43.700;-79.318;2024-01-16T01:53:09;14;11;
64138;PMS5003;50435;43.700;-79.318;2024-01-16T01:55:36;9;9;
64138;PMS5003;50435;43.700;-79.318;2024-01-16T01:58:04;11;9;
64138;PMS5003;50435;43.700;-79.318;2024-01-16T02:00:32;11;9;
64138;PMS5003;50435;43.700;-79.318;2024-01-16T02:02:59;7;7;
64138;PMS5003;50435;43.700;-79.318;2024-01-16T02:05:27;9;8;
64138;PMS5003;50435;43.700;-79.318;2024-01-16T02:07:55;9;9;
64138;PMS5003;50435;43.700;-79.318;2024-01-16T02:10:29;9;9;
64138;PMS5003;50435;43.700;-79.318;2024-01-16T02:12:58;9;9;
64138;PMS5003;50435;43.700;-79.318;2024-01-16T02:15:25;9;9;
64138;PMS5003;50435;43.700;-79.318;2024-01-16T02:17:53;12;11;
64138;PMS5003;50435;43.700;-79.318;2024-01-16T02:20:21;11;11;
64138;PMS5003;50435;43.700;-79.318;2024-01-16T02:22:48;12;12;
64138;PMS5003;50435;43.700;-79.318;2024-01-16T02:25:20;14;14;
64138;PMS5003;50435;43.700;-79.318;2024-01-16T02:27:48;9;9;
64138;PMS5003;50435;43.700;-79.318;2024-01-16T02:30:15;15;14;
64138;PMS5003;50435;43.700;-79.318;2024-01-16T02:32:43;9;8;
64138;PMS5003;50435;43.700;-79.318;2024-01-16T02:35:10;12;11;
64138;PMS5003;50435;43.700;-79.318;2024-01-16T02:37:38;11;11;
64138;PMS5003;50435;43.700;-79.318;2024-01-16T02:40:06;12;11;
64138;PMS5003;50435;43.700;-79.318;2024-01-16T02:42:34;11;11;
64138;PMS5003;50435;43.700;-79.318;2024-01-16T02:45:02;9;9;
64138;PMS5003;50435;43.700;-79.318;2024-01-16T02:47:30;11;9;
64138;PMS5003;50435;43.700;-79.318;2024-01-16T02:49:58;14;12;
64138;PMS5003;50435;43.700;-79.318;2024-01-16T02:52:26;9;9;
64138;PMS5003;50435;43.700;-79.318;2024-01-16T02:54:54;11;8;
64138;PMS5003;50435;43.700;-79.318;2024-01-16T02:57:21;9;9;
64138;PMS5003;50435;43.700;-79.318;2024-01-16T02:59:49;11;11;
64138;PMS5003;50435;43.700;-79.318;2024-01-16T03:02:16;9;9;
64138;PMS5003;50435;43.700;-79.318;2024-01-16T03:04:44;12;9;
64138;PMS5003;50435;43.700;-79.318;2024-01-16T03:07:12;11;9;
64138;PMS5003;50435;43.700;-79.318;2024-01-16T03:09:40;9;9;
64138;PMS5003;50435;43.700;-79.318;2024-01-16T03:12:07;9;9;
64138;PMS5003;50435;43.700;-79.318;2024-01-16T03:14:35;11;11;
64138;PMS5003;50435;43.700;-79.318;2024-01-16T03:17:02;12;11;
64138;PMS5003;50435;43.700;-79.318;2024-01-16T03:19:30;12;9;
64138;PMS5003;50435;43.700;-79.318;2024-01-16T03:21:58;9;9;
64138;PMS5003;50435;43.700;-79.318;2024-01-16T03:24:25;12;11;
64138;PMS5003;50435;43.700;-79.318;2024-01-16T03:26:53;14;11;
64138;PMS5003;50435;43.700;-79.318;2024-01-16T03:29:21;9;9;
64138;PMS5003;50435;43.700;-79.318;2024-01-16T03:31:48;11;11;
64138;PMS5003;50435;43.700;-79.318;2024-01-16T03:34:16;9;9;
64138;PMS5003;50435;43.700;-79.318;2024-01-16T03:36:43;15;14;
64138;PMS5003;50435;43.700;-79.318;2024-01-16T03:39:11;9;9;
64138;PMS5003;50435;43.700;-79.318;2024-01-16T03:41:39;11;9;
64138;PMS5003;50435;43.700;-79.318;2024-01-16T03:44:07;11;11;
64138;PMS5003;50435;43.700;-79.318;2024-01-16T03:46:34;11;11;
64138;PMS5003;50435;43.700;-79.318;2024-01-16T03:49:02;9;9;
64138;PMS5003;50435;43.700;-79.318;2024-01-16T03:51:30;9;9;
64138;PMS5003;50435;43.700;-79.318;2024-01-16T03:53:57;12;11;
64138;PMS5003;50435;43.700;-79.318;2024-01-16T03:56:24;16;14;
64138;PMS5003;50435;43.700;-79.318;2024-01-16T03:58:51;14;12;
64138;PMS5003;50435;43.700;-79.318;2024-01-16T04:01:20;11;11;
64138;PMS5003;50435;43.700;-79.318;2024-01-16T04:03:56;12;11;
64138;PMS5003;50435;43.700;-79.318;2024-01-16T04:06:24;15;14;
64138;PMS5003;50435;43.700;-79.318;2024-01-16T04:08:51;15;14;
64138;PMS5003;50435;43.700;-79.318;2024-01-16T04:11:18;11;11;
64138;PMS5003;50435;43.700;-79.318;2024-01-16T04:13:46;12;12;
64138;PMS5003;50435;43.700;-79.318;2024-01-16T04:16:14;14;14;
64138;PMS5003;50435;43.700;-79.318;2024-01-16T04:18:42;18;14;
64138;PMS5003;50435;43.700;-79.318;2024-01-16T04:21:10;15;13;
64138;PMS5003;50435;43.700;-79.318;2024-01-16T04:23:38;11;11;
64138;PMS5003;50435;43.700;-79.318;2024-01-16T04:26:05;14;14;
64138;PMS5003;50435;43.700;-79.318;2024-01-16T04:28:34;15;12;
64138;PMS5003;50435;43.700;-79.318;2024-01-16T04:31:02;14;11;
64138;PMS5003;50435;43.700;-79.318;2024-01-16T04:33:29;11;11;
64138;PMS5003;50435;43.700;-79.318;2024-01-16T04:35:57;12;12;
64138;PMS5003;50435;43.700;-79.318;2024-01-16T04:38:24;15;12;
64138;PMS5003;50435;43.700;-79.318;2024-01-16T04:40:52;11;11;
64138;PMS5003;50435;43.700;-79.318;2024-01-16T04:43:20;14;12;
64138;PMS5003;50435;43.700;-79.318;2024-01-16T04:45:47;12;12;
64138;PMS5003;50435;43.700;-79.318;2024-01-16T04:48:15;12;12;
64138;PMS5003;50435;43.700;-79.318;2024-01-16T04:50:42;12;11;
64138;PMS5003;50435;43.700;-79.318;2024-01-16T04:53:10;12;12;
64138;PMS5003;50435;43.700;-79.318;2024-01-16T04:55:37;12;12;
64138;PMS5003;50435;43.700;-79.318;2024-01-16T04:58:05;12;11;
64138;PMS5003;50435;43.700;-79.318;2024-01-16T05:00:33;12;12;
64138;PMS5003;50435;43.700;-79.318;2024-01-16T05:03:03;12;12;
64138;PMS5003;50435;43.700;-79.318;2024-01-16T05:05:30;12;11;
64138;PMS5003;50435;43.700;-79.318;2024-01-16T05:08:00;12;11;
64138;PMS5003;50435;43.700;-79.318;2024-01-16T05:10:28;14;14;
64138;PMS5003;50435;43.700;-79.318;2024-01-16T05:12:55;14;14;
64138;PMS5003;50435;43.700;-79.318;2024-01-16T05:15:23;14;14;
64138;PMS5003;50435;43.700;-79.318;2024-01-16T05:17:50;15;12;
64138;PMS5003;50435;43.700;-79.318;2024-01-16T05:20:18;14;14;
64138;PMS5003;50435;43.700;-79.318;2024-01-16T05:22:45;14;12;
64138;PMS5003;50435;43.700;-79.318;2024-01-16T05:25:13;16;12;
64138;PMS5003;50435;43.700;-79.318;2024-01-16T05:27:40;12;12;
64138;PMS5003;50435;43.700;-79.318;2024-01-16T05:30:09;15;15;
64138;PMS5003;50435;43.700;-79.318;2024-01-16T05:32:37;14;12;
64138;PMS5003;50435;43.700;-79.318;2024-01-16T05:35:05;16;15;
64138;PMS5003;50435;43.700;-79.318;2024-01-16T05:37:32;16;14;
64138;PMS5003;50435;43.700;-79.318;2024-01-16T05:39:59;14;14;
64138;PMS5003;50435;43.700;-79.318;2024-01-16T05:42:27;16;16;
64138;PMS5003;50435;43.700;-79.318;2024-01-16T05:44:55;15;15;
64138;PMS5003;50435;43.700;-79.318;2024-01-16T05:47:22;15;14;
64138;PMS5003;50435;43.700;-79.318;2024-01-16T05:49:50;15;14;
64138;PMS5003;50435;43.700;-79.318;2024-01-16T05:52:18;18;15;
64138;PMS5003;50435;43.700;-79.318;2024-01-16T05:54:45;14;14;
64138;PMS5003;50435;43.700;-79.318;2024-01-16T05:57:13;14;14;
64138;PMS5003;50435;43.700;-79.318;2024-01-16T05:59:40;14;14;
64138;PMS5003;50435;43.700;-79.318;2024-01-16T06:02:08;15;15;
64138;PMS5003;50435;43.700;-79.318;2024-01-16T06:04:36;23;23;
64138;PMS5003;50435;43.700;-79.318;2024-01-16T06:07:03;16;14;
64138;PMS5003;50435;43.700;-79.318;2024-01-16T06:09:31;16;16;
64138;PMS5003;50435;43.700;-79.318;2024-01-16T06:11:58;14;14;
64138;PMS5003;50435;43.700;-79.318;2024-01-16T06:14:26;14;14;
64138;PMS5003;50435;43.700;-79.318;2024-01-16T06:16:54;18;16;
64138;PMS5003;50435;43.700;-79.318;2024-01-16T06:19:21;18;18;
64138;PMS5003;50435;43.700;-79.318;2024-01-16T06:21:49;18;16;
64138;PMS5003;50435;43.700;-79.318;2024-01-16T06:24:16;14;14;
64138;PMS5003;50435;43.700;-79.318;2024-01-16T06:26:44;16;16;
64138;PMS5003;50435;43.700;-79.318;2024-01-16T06:29:11;14;14;
64138;PMS5003;50435;43.700;-79.318;2024-01-16T06:31:39;15;14;
64138;PMS5003;50435;43.700;-79.318;2024-01-16T06:34:07;16;16;
64138;PMS5003;50435;43.700;-79.318;2024-01-16T06:36:34;15;15;
64138;PMS5003;50435;43.700;-79.318;2024-01-16T06:39:02;16;16;
64138;PMS5003;50435;43.700;-79.318;2024-01-16T06:41:30;19;18;
64138;PMS5003;50435;43.700;-79.318;2024-01-16T06:43:57;19;16;
64138;PMS5003;50435;43.700;-79.318;2024-01-16T06:46:25;15;14;
64138;PMS5003;50435;43.700;-79.318;2024-01-16T06:48:53;14;14;
64138;PMS5003;50435;43.700;-79.318;2024-01-16T06:51:20;21;18;
64138;PMS5003;50435;43.700;-79.318;2024-01-16T06:53:48;18;18;
64138;PMS5003;50435;43.700;-79.318;2024-01-16T06:56:15;15;14;
64138;PMS5003;50435;43.700;-79.318;2024-01-16T06:58:43;22;22;
64138;PMS5003;50435;43.700;-79.318;2024-01-16T07:01:10;16;15;
64138;PMS5003;50435;43.700;-79.318;2024-01-16T07:03:38;16;16;
64138;PMS5003;50435;43.700;-79.318;2024-01-16T07:06:06;19;18;
64138;PMS5003;50435;43.700;-79.318;2024-01-16T07:08:33;18;16;
64138;PMS5003;50435;43.700;-79.318;2024-01-16T07:11:01;19;18;
64138;PMS5003;50435;43.700;-79.318;2024-01-16T07:13:29;19;16;
64138;PMS5003;50435;43.700;-79.318;2024-01-16T07:15:56;22;18;
64138;PMS5003;50435;43.700;-79.318;2024-01-16T07:18:24;19;19;
64138;PMS5003;50435;43.700;-79.318;2024-01-16T07:20:51;15;15;
64138;PMS5003;50435;43.700;-79.318;2024-01-16T07:23:19;19;15;
64138;PMS5003;50435;43.700;-79.318;2024-01-16T07:25:46;21;19;
64138;PMS5003;50435;43.700;-79.318;2024-01-16T07:28:14;18;18;
64138;PMS5003;50435;43.700;-79.318;2024-01-16T07:30:41;16;16;
64138;PMS5003;50435;43.700;-79.318;2024-01-16T07:33:09;22;18;
64138;PMS5003;50435;43.700;-79.318;2024-01-16T07:35:37;19;18;
64138;PMS5003;50435;43.700;-79.318;2024-01-16T07:38:04;25;22;
64138;PMS5003;50435;43.700;-79.318;2024-01-16T07:40:32;25;21;
64138;PMS5003;50435;43.700;-79.318;2024-01-16T07:43:00;15;15;
64138;PMS5003;50435;43.700;-79.318;2024-01-16T07:45:28;19;18;
64138;PMS5003;50435;43.700;-79.318;2024-01-16T07:47:55;16;16;
64138;PMS5003;50435;43.700;-79.318;2024-01-16T07:50:23;22;21;
64138;PMS5003;50435;43.700;-79.318;2024-01-16T07:52:51;29;25;
64138;PMS5003;50435;43.700;-79.318;2024-01-16T07:55:18;19;19;
64138;PMS5003;50435;43.700;-79.318;2024-01-16T07:57:46;19;19;
64138;PMS5003;50435;43.700;-79.318;2024-01-16T08:00:14;20;20;
64138;PMS5003;50435;43.700;-79.318;2024-01-16T08:02:41;20;19;
64138;PMS5003;50435;43.700;-79.318;2024-01-16T08:05:09;22;19;
64138;PMS5003;50435;43.700;-79.318;2024-01-16T08:07:37;23;22;
64138;PMS5003;50435;43.700;-79.318;2024-01-16T08:10:04;16;16;
64138;PMS5003;50435;43.700;-79.318;2024-01-16T08:12:32;27;26;
64138;PMS5003;50435;43.700;-79.318;2024-01-16T08:15:00;22;18;
64138;PMS5003;50435;43.700;-79.318;2024-01-16T08:17:28;23;22;
64138;PMS5003;50435;43.700;-79.318;2024-01-16T08:19:55;22;22;
64138;PMS5003;50435;43.700;-79.318;2024-01-16T08:22:23;32;24;
64138;PMS5003;50435;43.700;-79.318;2024-01-16T08:24:51;28;28;
64138;PMS5003;50435;43.700;-79.318;2024-01-16T08:27:19;23;23;
64138;PMS5003;50435;43.700;-79.318;2024-01-16T08:29:46;26;25;
64138;PMS5003;50435;43.700;-79.318;2024-01-16T08:32:13;26;23;
64138;PMS5003;50435;43.700;-79.318;2024-01-16T08:34:42;26;25;
64138;PMS5003;50435;43.700;-79.318;2024-01-16T08:37:09;27;27;
64138;PMS5003;50435;43.700;-79.318;2024-01-16T08:39:37;26;26;
64138;PMS5003;50435;43.700;-79.318;2024-01-16T08:42:04;27;26;
64138;PMS5003;50435;43.700;-79.318;2024-01-16T08:44:32;27;26;
64138;PMS5003;50435;43.700;-79.318;2024-01-16T08:46:59;29;26;
64138;PMS5003;50435;43.700;-79.318;2024-01-16T08:49:27;29;26;
64138;PMS5003;50435;43.700;-79.318;2024-01-16T08:51:54;27;25;
64138;PMS5003;50435;43.700;-79.318;2024-01-16T08:54:21;26;25;
64138;PMS5003;50435;43.700;-79.318;2024-01-16T08:56:49;22;22;
64138;PMS5003;50435;43.700;-79.318;2024-01-16T08:59:17;26;26;
64138;PMS5003;50435;43.700;-79.318;2024-01-16T09:01:44;23;23;
64138;PMS5003;50435;43.700;-79.318;2024-01-16T09:04:12;30;27;
64138;PMS5003;50435;43.700;-79.318;2024-01-16T09:06:39;27;27;
64138;PMS5003;50435;43.700;-79.318;2024-01-16T09:09:07;29;29;
64138;PMS5003;50435;43.700;-79.318;2024-01-16T09:11:34;30;29;
64138;PMS5003;50435;43.700;-79.318;2024-01-16T09:14:02;31;29;
64138;PMS5003;50435;43.700;-79.318;2024-01-16T09:16:29;29;27;
64138;PMS5003;50435;43.700;-79.318;2024-01-16T09:18:56;26;26;
64138;PMS5003;50435;43.700;-79.318;2024-01-16T09:21:23;27;27;
64138;PMS5003;50435;43.700;-79.318;2024-01-16T09:23:51;30;27;
64138;PMS5003;50435;43.700;-79.318;2024-01-16T09:26:19;32;32;
64138;PMS5003;50435;43.700;-79.318;2024-01-16T09:28:46;29;27;
64138;PMS5003;50435;43.700;-79.318;2024-01-16T09:31:15;30;27;
64138;PMS5003;50435;43.700;-79.318;2024-01-16T09:33:43;31;31;
64138;PMS5003;50435;43.700;-79.318;2024-01-16T09:36:11;36;29;
64138;PMS5003;50435;43.700;-79.318;2024-01-16T09:38:38;33;30;
64138;PMS5003;50435;43.700;-79.318;2024-01-16T09:41:06;33;29;
64138;PMS5003;50435;43.700;-79.318;2024-01-16T09:43:34;32;29;
64138;PMS5003;50435;43.700;-79.318;2024-01-16T09:46:02;29;29;
64138;PMS5003;50435;43.700;-79.318;2024-01-16T09:48:32;26;25;
64138;PMS5003;50435;43.700;-79.318;2024-01-16T09:51:00;29;26;
64138;PMS5003;50435;43.700;-79.318;2024-01-16T09:53:27;33;30;
64138;PMS5003;50435;43.700;-79.318;2024-01-16T09:55:54;34;31;
64138;PMS5003;50435;43.700;-79.318;2024-01-16T09:58:28;34;31;
64138;PMS5003;50435;43.700;-79.318;2024-01-16T10:01:03;29;29;
64138;PMS5003;50435;43.700;-79.318;2024-01-16T10:03:32;30;27;
64138;PMS5003;50435;43.700;-79.318;2024-01-16T10:06:01;23;23;
64138;PMS5003;50435;43.700;-79.318;2024-01-16T10:08:32;33;33;
64138;PMS5003;50435;43.700;-79.318;2024-01-16T10:11:00;29;27;
64138;PMS5003;50435;43.700;-79.318;2024-01-16T10:13:28;29;29;
64138;PMS5003;50435;43.700;-79.318;2024-01-16T10:15:55;29;27;
64138;PMS5003;50435;43.700;-79.318;2024-01-16T10:18:23;29;25;
64138;PMS5003;50435;43.700;-79.318;2024-01-16T10:20:51;30;27;
64138;PMS5003;50435;43.700;-79.318;2024-01-16T10:23:22;27;27;
64138;PMS5003;50435;43.700;-79.318;2024-01-16T10:26:04;36;33;
64138;PMS5003;50435;43.700;-79.318;2024-01-16T10:28:32;36;30;
64138;PMS5003;50435;43.700;-79.318;2024-01-16T10:31:02;31;30;
64138;PMS5003;50435;43.700;-79.318;2024-01-16T10:33:30;29;27;
64138;PMS5003;50435;43.700;-79.318;2024-01-16T10:36:07;29;29;
64138;PMS5003;50435;43.700;-79.318;2024-01-16T10:38:36;29;24;
64138;PMS5003;50435;43.700;-79.318;2024-01-16T10:41:05;30;29;
64138;PMS5003;50435;43.700;-79.318;2024-01-16T10:43:33;31;29;
64138;PMS5003;50435;43.700;-79.318;2024-01-16T10:46:07;27;26;
64138;PMS5003;50435;43.700;-79.318;2024-01-16T10:48:36;37;31;
64138;PMS5003;50435;43.700;-79.318;2024-01-16T10:51:05;23;23;
64138;PMS5003;50435;43.700;-79.318;2024-01-16T10:53:34;29;27;
64138;PMS5003;50435;43.700;-79.318;2024-01-16T10:56:02;30;27;
64138;PMS5003;50435;43.700;-79.318;2024-01-16T10:58:33;29;29;
64138;PMS5003;50435;43.700;-79.318;2024-01-16T11:01:02;29;27;
64138;PMS5003;50435;43.700;-79.318;2024-01-16T11:03:35;26;26;
64138;PMS5003;50435;43.700;-79.318;2024-01-16T11:06:05;30;27;
64138;PMS5003;50435;43.700;-79.318;2024-01-16T11:08:34;30;26;
64138;PMS5003;50435;43.700;-79.318;2024-01-16T11:11:04;27;26;
64138;PMS5003;50435;43.700;-79.318;2024-01-16T11:13:33;29;29;
64138;PMS5003;50435;43.700;-79.318;2024-01-16T11:16:02;29;26;
64138;PMS5003;50435;43.700;-79.318;2024-01-16T11:18:30;26;26;
64138;PMS5003;50435;43.700;-79.318;2024-01-16T11:20:58;33;33;
64138;PMS5003;50435;43.700;-79.318;2024-01-16T11:23:28;24;24;
64138;PMS5003;50435;43.700;-79.318;2024-01-16T11:25:56;29;24;
64138;PMS5003;50435;43.700;-79.318;2024-01-16T11:28:27;36;31;
64138;PMS5003;50435;43.700;-79.318;2024-01-16T11:30:55;30;30;
64138;PMS5003;50435;43.700;-79.318;2024-01-16T11:33:55;37;31;
64138;PMS5003;50435;43.700;-79.318;2024-01-16T11:36:55;29;27;
64138;PMS5003;50435;43.700;-79.318;2024-01-16T11:39:23;34;30;
64138;PMS5003;50435;43.700;-79.318;2024-01-16T11:41:52;27;24;
64138;PMS5003;50435;43.700;-79.318;2024-01-16T11:44:53;27;26;
64138;PMS5003;50435;43.700;-79.318;2024-01-16T11:47:20;27;24;
64138;PMS5003;50435;43.700;-79.318;2024-01-16T11:49:50;31;27;
64138;PMS5003;50435;43.700;-79.318;2024-01-16T11:52:41;24;24;
64138;PMS5003;50435;43.700;-79.318;2024-01-16T11:55:25;24;23;
64138;PMS5003;50435;43.700;-79.318;2024-01-16T11:57:59;30;24;
64138;PMS5003;50435;43.700;-79.318;2024-01-16T12:00:38;31;26;
64138;PMS5003;50435;43.700;-79.318;2024-01-16T12:03:08;23;23;
64138;PMS5003;50435;43.700;-79.318;2024-01-16T12:05:36;23;23;
64138;PMS5003;50435;43.700;-79.318;2024-01-16T12:08:04;24;22;
64138;PMS5003;50435;43.700;-79.318;2024-01-16T12:10:31;20;20;
64138;PMS5003;50435;43.700;-79.318;2024-01-16T12:12:59;24;23;
64138;PMS5003;50435;43.700;-79.318;2024-01-16T12:15:26;22;20;
64138;PMS5003;50435;43.700;-79.318;2024-01-16T12:17:54;22;20;
64138;PMS5003;50435;43.700;-79.318;2024-01-16T12:20:23;22;22;
64138;PMS5003;50435;43.700;-79.318;2024-01-16T12:22:53;23;19;
64138;PMS5003;50435;43.700;-79.318;2024-01-16T12:25:22;29;26;
64138;PMS5003;50435;43.700;-79.318;2024-01-16T12:27:56;23;23;
64138;PMS5003;50435;43.700;-79.318;2024-01-16T12:30:25;16;16;
64138;PMS5003;50435;43.700;-79.318;2024-01-16T12:32:53;23;22;
64138;PMS5003;50435;43.700;-79.318;2024-01-16T12:35:29;19;19;
64138;PMS5003;50435;43.700;-79.318;2024-01-16T12:37:58;19;19;
64138;PMS5003;50435;43.700;-79.318;2024-01-16T12:40:26;23;20;
64138;PMS5003;50435;43.700;-79.318;2024-01-16T12:42:54;23;23;
64138;PMS5003;50435;43.700;-79.318;2024-01-16T12:45:22;20;20;
64138;PMS5003;50435;43.700;-79.318;2024-01-16T12:47:50;23;20;
64138;PMS5003;50435;43.700;-79.318;2024-01-16T12:50:20;22;20;
64138;PMS5003;50435;43.700;-79.318;2024-01-16T12:52:48;22;20;
64138;PMS5003;50435;43.700;-79.318;2024-01-16T12:55:16;27;27;
64138;PMS5003;50435;43.700;-79.318;2024-01-16T12:57:44;28;27;
64138;PMS5003;50435;43.700;-79.318;2024-01-16T13:00:27;27;23;
64138;PMS5003;50435;43.700;-79.318;2024-01-16T13:02:55;23;22;
64138;PMS5003;50435;43.700;-79.318;2024-01-16T13:05:22;23;23;
64138;PMS5003;50435;43.700;-79.318;2024-01-16T13:07:59;26;23;
64138;PMS5003;50435;43.700;-79.318;2024-01-16T13:10:27;26;26;
64138;PMS5003;50435;43.700;-79.318;2024-01-16T13:13:10;22;22;
64138;PMS5003;50435;43.700;-79.318;2024-01-16T13:15:39;31;27;
64138;PMS5003;50435;43.700;-79.318;2024-01-16T13:18:16;23;23;
64138;PMS5003;50435;43.700;-79.318;2024-01-16T13:20:44;28;26;
64138;PMS5003;50435;43.700;-79.318;2024-01-16T13:23:12;24;24;
64138;PMS5003;50435;43.700;-79.318;2024-01-16T13:25:42;26;24;
64138;PMS5003;50435;43.700;-79.318;2024-01-16T13:28:10;30;27;
64138;PMS5003;50435;43.700;-79.318;2024-01-16T13:30:38;31;27;
64138;PMS5003;50435;43.700;-79.318;2024-01-16T13:33:05;32;31;
64138;PMS5003;50435;43.700;-79.318;2024-01-16T13:35:34;27;26;
64138;PMS5003;50435;43.700;-79.318;2024-01-16T13:38:02;30;26;
64138;PMS5003;50435;43.700;-79.318;2024-01-16T13:40:30;26;24;
64138;PMS5003;50435;43.700;-79.318;2024-01-16T13:42:58;22;22;
64138;PMS5003;50435;43.700;-79.318;2024-01-16T13:45:26;23;22;
64138;PMS5003;50435;43.700;-79.318;2024-01-16T13:47:54;24;24;
64138;PMS5003;50435;43.700;-79.318;2024-01-16T13:50:21;23;23;
64138;PMS5003;50435;43.700;-79.318;2024-01-16T13:52:49;26;23;
64138;PMS5003;50435;43.700;-79.318;2024-01-16T13:55:17;22;22;
64138;PMS5003;50435;43.700;-79.318;2024-01-16T13:57:45;27;24;
64138;PMS5003;50435;43.700;-79.318;2024-01-16T14:00:13;20;20;
64138;PMS5003;50435;43.700;-79.318;2024-01-16T14:02:42;23;20;
64138;PMS5003;50435;43.700;-79.318;2024-01-16T14:05:11;26;23;
64138;PMS5003;50435;43.700;-79.318;2024-01-16T14:07:40;23;23;
64138;PMS5003;50435;43.700;-79.318;2024-01-16T14:10:07;24;21;
64138;PMS5003;50435;43.700;-79.318;2024-01-16T14:12:36;27;23;
64138;PMS5003;50435;43.700;-79.318;2024-01-16T14:15:04;17;17;
64138;PMS5003;50435;43.700;-79.318;2024-01-16T14:17:32;21;19;
64138;PMS5003;50435;43.700;-79.318;2024-01-16T14:20:00;24;24;
64138;PMS5003;50435;43.700;-79.318;2024-01-16T14:22:28;20;20;
64138;PMS5003;50435;43.700;-79.318;2024-01-16T14:24:55;21;21;
64138;PMS5003;50435;43.700;-79.318;2024-01-16T14:27:22;23;21;
64138;PMS5003;50435;43.700;-79.318;2024-01-16T14:29:50;24;23;
64138;PMS5003;50435;43.700;-79.318;2024-01-16T14:32:17;27;21;
64138;PMS5003;50435;43.700;-79.318;2024-01-16T14:34:44;20;20;
64138;PMS5003;50435;43.700;-79.318;2024-01-16T14:37:12;24;20;
64138;PMS5003;50435;43.700;-79.318;2024-01-16T14:39:39;20;19;
64138;PMS5003;50435;43.700;-79.318;2024-01-16T14:42:07;21;21;
64138;PMS5003;50435;43.700;-79.318;2024-01-16T14:44:35;30;27;
64138;PMS5003;50435;43.700;-79.318;2024-01-16T14:47:02;31;30;
64138;PMS5003;50435;43.700;-79.318;2024-01-16T14:49:30;26;21;
64138;PMS5003;50435;43.700;-79.318;2024-01-16T14:51:57;23;21;
64138;PMS5003;50435;43.700;-79.318;2024-01-16T14:54:25;24;21;
64138;PMS5003;50435;43.700;-79.318;2024-01-16T14:56:53;23;20;
64138;PMS5003;50435;43.700;-79.318;2024-01-16T14:59:20;24;23;
64138;PMS5003;50435;43.700;-79.318;2024-01-16T15:01:48;30;25;
64138;PMS5003;50435;43.700;-79.318;2024-01-16T15:04:16;28;25;
64138;PMS5003;50435;43.700;-79.318;2024-01-16T15:06:43;27;25;
64138;PMS5003;50435;43.700;-79.318;2024-01-16T15:09:10;27;21;
64138;PMS5003;50435;43.700;-79.318;2024-01-16T15:11:37;29;27;
64138;PMS5003;50435;43.700;-79.318;2024-01-16T15:14:05;25;23;
64138;PMS5003;50435;43.700;-79.318;2024-01-16T15:16:32;32;31;
64138;PMS5003;50435;43.700;-79.318;2024-01-16T15:18:59;28;24;
64138;PMS5003;50435;43.700;-79.318;2024-01-16T15:21:26;27;27;
64138;PMS5003;50435;43.700;-79.318;2024-01-16T15:23:54;31;27;
64138;PMS5003;50435;43.700;-79.318;2024-01-16T15:26:21;28;28;
64138;PMS5003;50435;43.700;-79.318;2024-01-16T15:28:49;33;25;
64138;PMS5003;50435;43.700;-79.318;2024-01-16T15:31:16;28;24;
64138;PMS5003;50435;43.700;-79.318;2024-01-16T15:33:44;30;28;
64138;PMS5003;50435;43.700;-79.318;2024-01-16T15:36:11;29;25;
64138;PMS5003;50435;43.700;-79.318;2024-01-16T15:38:39;23;23;
64138;PMS5003;50435;43.700;-79.318;2024-01-16T15:41:06;24;21;
64138;PMS5003;50435;43.700;-79.318;2024-01-16T15:43:34;31;27;
64138;PMS5003;50435;43.700;-79.318;2024-01-16T15:46:02;21;21;
64138;PMS5003;50435;43.700;-79.318;2024-01-16T15:48:29;27;22;
64138;PMS5003;50435;43.700;-79.318;2024-01-16T15:50:56;28;28;
64138;PMS5003;50435;43.700;-79.318;2024-01-16T15:53:24;22;22;
64138;PMS5003;50435;43.700;-79.318;2024-01-16T15:55:52;32;26;
64138;PMS5003;50435;43.700;-79.318;2024-01-16T15:58:19;21;21;